createdAt,value
2023-01-04T00:02:22.532Z,6.31
2023-01-04T00:04:57.019Z,6.34
2023-01-04T00:07:27.501Z,6.32
2023-01-04T00:09:57.743Z,6.27
2023-01-04T00:12:27.835Z,6.26
2023-01-04T00:15:01.146Z,6.30
2023-01-04T00:17:32.765Z,6.32
2023-01-04T00:20:05.516Z,6.30
2023-01-04T00:22:37.335Z,6.23
2023-01-04T00:25:08.394Z,6.27
2023-01-04T00:27:38.473Z,6.22
2023-01-04T00:30:09.744Z,6.12
2023-01-04T00:32:40.122Z,6.13
2023-01-04T00:35:32.928Z,6.10
2023-01-04T00:38:05.307Z,6.02
2023-01-04T00:40:35.295Z,5.97
2023-01-04T00:43:05.775Z,5.94
2023-01-04T00:45:36.525Z,6.00
2023-01-04T00:48:07.442Z,5.98
2023-01-04T00:50:40.247Z,6.01
2023-01-04T00:53:10.304Z,5.93
2023-01-04T00:55:40.472Z,5.89
2023-01-04T00:58:10.783Z,5.86
2023-01-04T01:00:43.005Z,5.88
2023-01-04T01:03:13.157Z,5.80
2023-01-04T01:05:46.071Z,5.79
2023-01-04T01:08:28.327Z,5.77
2023-01-04T01:10:58.857Z,5.78
2023-01-04T01:13:28.912Z,5.74
2023-01-04T01:15:59.196Z,5.64
2023-01-04T01:18:29.293Z,5.54
2023-01-04T01:21:02.560Z,5.49
2023-01-04T01:23:32.697Z,5.51
2023-01-04T01:26:04.514Z,5.55
2023-01-04T01:28:34.614Z,5.51
2023-01-04T01:31:09.702Z,5.50
2023-01-04T01:33:40.304Z,5.47
2023-01-04T01:36:14.477Z,5.35
2023-01-04T01:38:45.085Z,5.44
2023-01-04T01:41:21.661Z,5.41
2023-01-04T01:43:57.607Z,5.36
2023-01-04T01:46:30.882Z,5.40
2023-01-04T01:49:05.530Z,5.43
2023-01-04T01:51:38.793Z,5.43
2023-01-04T01:54:14.373Z,5.47
2023-01-04T01:56:47.598Z,5.40
2023-01-04T01:59:20.040Z,5.25
2023-01-04T02:01:50.447Z,5.14
2023-01-04T02:04:21.016Z,5.18
2023-01-04T02:06:58.106Z,5.18
2023-01-04T02:09:28.463Z,5.08
2023-01-04T02:11:58.690Z,5.08
2023-01-04T02:14:32.217Z,5.12
2023-01-04T02:17:11.843Z,5.03
2023-01-04T02:20:06.884Z,4.93
2023-01-04T02:23:01.334Z,4.82
2023-01-04T02:25:46.033Z,4.74
2023-01-04T02:28:25.789Z,4.74
2023-01-04T02:31:24.536Z,4.69
2023-01-04T02:34:01.428Z,4.66
2023-01-04T02:36:39.626Z,4.58
2023-01-04T02:39:24.346Z,4.52
2023-01-04T02:42:00.918Z,4.44
2023-01-04T02:44:48.795Z,4.42
2023-01-04T02:47:46.123Z,4.33
2023-01-04T02:50:33.295Z,4.31
2023-01-04T02:53:11.234Z,4.32
2023-01-04T02:55:51.364Z,4.30
2023-01-04T02:58:34.087Z,4.09
2023-01-04T03:01:29.097Z,4.01
2023-01-04T03:04:27.587Z,3.92
2023-01-04T03:07:05.684Z,3.89
2023-01-04T03:09:38.904Z,3.88
2023-01-04T03:12:27.624Z,3.86
2023-01-04T03:15:02.543Z,3.83
2023-01-04T03:17:37.599Z,3.78
2023-01-04T03:20:13.041Z,3.75
2023-01-04T03:22:58.948Z,3.68
2023-01-04T03:25:45.823Z,3.74
2023-01-04T03:28:30.827Z,3.62
2023-01-04T03:31:19.519Z,3.66
2023-01-04T03:34:02.722Z,3.60
2023-01-04T03:36:47.325Z,3.48
2023-01-04T03:39:37.528Z,3.51
2023-01-04T03:42:29.799Z,3.44
2023-01-04T03:45:22.094Z,3.46
2023-01-04T03:48:11.356Z,3.38
2023-01-04T03:50:44.783Z,3.44
2023-01-04T03:53:18.555Z,3.49
2023-01-04T03:55:51.897Z,3.42
2023-01-04T03:58:23.330Z,3.49
2023-01-04T04:01:04.387Z,3.45
2023-01-04T04:03:47.485Z,3.43
2023-01-04T04:06:30.345Z,3.43
2023-01-04T04:09:03.191Z,3.36
2023-01-04T04:11:33.327Z,3.38
2023-01-04T04:14:03.890Z,3.35
2023-01-04T04:16:34.191Z,3.27
2023-01-04T04:19:08.557Z,3.16
2023-01-04T04:21:42.006Z,3.22
2023-01-04T04:24:20.757Z,3.12
2023-01-04T04:26:51.162Z,3.19
2023-01-04T04:29:21.668Z,3.16
2023-01-04T04:31:52.159Z,3.21
2023-01-04T04:34:22.451Z,3.18
2023-01-04T04:36:52.744Z,3.14
2023-01-04T04:39:27.810Z,3.12
2023-01-04T04:41:55.288Z,3.16
2023-01-04T04:44:25.788Z,3.11
2023-01-04T04:46:56.032Z,3.08
2023-01-04T04:49:26.049Z,3.09
2023-01-04T04:51:56.171Z,3.04
2023-01-04T04:54:29.120Z,3.01
2023-01-04T04:56:59.195Z,2.96
2023-01-04T04:59:29.236Z,2.98
2023-01-04T05:01:59.427Z,2.97
2023-01-04T05:04:29.805Z,2.98
2023-01-04T05:06:59.980Z,3.01
2023-01-04T05:09:32.782Z,2.97
2023-01-04T05:12:15.138Z,2.90
2023-01-04T05:14:45.232Z,2.83
2023-01-04T05:17:15.245Z,2.70
2023-01-04T05:19:45.652Z,2.72
2023-01-04T05:22:15.932Z,2.66
2023-01-04T05:24:48.656Z,2.57
2023-01-04T05:27:19.137Z,2.47
2023-01-04T05:30:01.709Z,2.34
2023-01-04T05:32:31.922Z,2.24
2023-01-04T05:35:02.275Z,2.21
2023-01-04T05:37:32.533Z,2.09
2023-01-04T05:40:05.375Z,2.03
2023-01-04T05:42:35.435Z,1.96
2023-01-04T05:45:05.742Z,1.99
2023-01-04T05:47:36.467Z,1.94
2023-01-04T05:50:07.857Z,1.91
2023-01-04T05:52:38.900Z,1.84
2023-01-04T05:55:14.813Z,1.84
2023-01-04T05:57:47.162Z,1.87
2023-01-04T06:00:18.161Z,1.81
2023-01-04T06:02:48.490Z,1.86
2023-01-04T06:05:18.632Z,1.83
2023-01-04T06:07:48.765Z,1.83
2023-01-04T06:10:22.264Z,1.81
2023-01-04T06:12:52.374Z,1.77
2023-01-04T06:15:22.721Z,1.83
2023-01-04T06:17:52.956Z,1.72
2023-01-04T06:20:23.070Z,1.72
2023-01-04T06:22:53.296Z,1.69
2023-01-04T06:25:25.956Z,1.63
2023-01-04T06:27:56.053Z,1.70
2023-01-04T06:30:28.414Z,1.70
2023-01-04T06:32:59.105Z,1.69
2023-01-04T06:35:29.113Z,1.66
2023-01-04T06:37:59.148Z,1.70
2023-01-04T06:40:31.737Z,1.65
2023-01-04T06:43:02.041Z,1.58
2023-01-04T06:45:33.384Z,1.55
2023-01-04T06:48:08.978Z,1.49
2023-01-04T06:50:39.685Z,1.49
2023-01-04T06:53:09.843Z,1.53
2023-01-04T06:55:42.667Z,1.56
2023-01-04T06:58:12.706Z,1.63
2023-01-04T07:00:43.060Z,1.60
2023-01-04T07:03:15.915Z,1.60
2023-01-04T07:05:46.718Z,1.60
2023-01-04T07:08:17.884Z,1.53
2023-01-04T07:10:52.139Z,1.49
2023-01-04T07:13:22.187Z,1.46
2023-01-04T07:15:52.644Z,1.52
2023-01-04T07:18:22.796Z,1.55
2023-01-04T07:20:52.965Z,1.64
2023-01-04T07:23:23.127Z,1.69
2023-01-04T07:25:55.821Z,1.71
2023-01-04T07:28:38.050Z,1.72
2023-01-04T07:31:09.588Z,1.74
2023-01-04T07:33:40.049Z,1.76
2023-01-04T07:36:11.015Z,1.79
2023-01-04T07:38:41.046Z,1.85
2023-01-04T07:41:13.997Z,1.90
2023-01-04T07:43:44.043Z,1.91
2023-01-04T07:46:14.207Z,1.95
2023-01-04T07:48:44.326Z,2.02
2023-01-04T07:51:14.430Z,2.14
2023-01-04T07:53:44.528Z,2.21
2023-01-04T07:56:18.970Z,2.34
2023-01-04T07:58:49.199Z,2.43
2023-01-04T08:01:21.083Z,2.60
2023-01-04T08:03:51.354Z,2.88
2023-01-04T08:06:24.135Z,2.96
2023-01-04T08:08:54.210Z,3.10
2023-01-04T08:11:26.928Z,3.33
2023-01-04T08:13:57.249Z,3.46
2023-01-04T08:16:31.962Z,3.74
2023-01-04T08:19:03.387Z,3.68
2023-01-04T08:21:35.029Z,3.76
2023-01-04T08:24:05.594Z,3.78
2023-01-04T08:26:39.359Z,3.89
2023-01-04T08:29:09.182Z,4.07
2023-01-04T08:31:39.545Z,4.28
2023-01-04T08:34:12.096Z,4.33
2023-01-04T08:36:50.266Z,4.44
2023-01-04T08:39:21.866Z,4.50
2023-01-04T08:42:02.129Z,4.20
2023-01-04T08:44:34.616Z,4.09
2023-01-04T08:47:05.153Z,3.71
2023-01-04T08:49:35.308Z,3.53
2023-01-04T08:52:05.403Z,3.42
2023-01-04T08:54:36.136Z,3.40
2023-01-04T08:57:08.766Z,3.62
2023-01-04T08:59:39.054Z,3.36
2023-01-04T09:02:17.939Z,3.17
2023-01-04T09:04:48.152Z,3.31
2023-01-04T09:07:18.755Z,3.33
2023-01-04T09:09:48.780Z,3.35
2023-01-04T09:12:21.415Z,3.28
2023-01-04T09:14:51.457Z,3.46
2023-01-04T09:17:21.562Z,3.46
2023-01-04T09:19:51.598Z,3.47
2023-01-04T09:22:21.691Z,3.43
2023-01-04T09:24:51.984Z,3.48
2023-01-04T09:27:24.629Z,3.43
2023-01-04T09:29:54.843Z,3.47
2023-01-04T09:32:24.864Z,3.57
2023-01-04T09:34:56.493Z,3.70
2023-01-04T09:37:28.833Z,3.79
2023-01-04T09:39:59.124Z,3.88
2023-01-04T09:42:39.737Z,4.11
2023-01-04T09:45:24.214Z,4.25
2023-01-04T09:47:58.676Z,4.29
2023-01-04T09:50:32.290Z,4.40
2023-01-04T09:53:14.158Z,4.56
2023-01-04T09:55:49.823Z,4.69
2023-01-04T09:58:31.637Z,4.78
2023-01-04T10:01:05.744Z,4.84
2023-01-04T10:03:39.006Z,4.79
2023-01-04T10:06:12.566Z,4.91
2023-01-04T10:08:44.725Z,4.71
2023-01-04T10:11:29.347Z,4.88
2023-01-04T10:14:17.336Z,5.09
2023-01-04T10:17:28.248Z,4.98
2023-01-04T10:23:26.798Z,5.13
2023-01-04T10:26:00.109Z,5.39
2023-01-04T10:28:44.587Z,5.51
2023-01-04T10:31:40.781Z,5.67
2023-01-04T10:34:24.240Z,5.91
2023-01-04T10:37:00.132Z,6.02
2023-01-04T10:39:36.069Z,5.93
2023-01-04T10:42:17.419Z,5.93
2023-01-04T10:45:05.071Z,5.85
2023-01-04T10:47:52.323Z,5.86
2023-01-04T10:50:28.155Z,5.90
2023-01-04T10:53:05.215Z,6.07
2023-01-04T10:56:23.220Z,6.17
2023-01-04T10:58:39.458Z,6.24
2023-01-04T11:01:16.289Z,6.26
2023-01-04T11:03:55.096Z,6.14
2023-01-04T11:06:28.267Z,6.25
2023-01-04T11:09:02.611Z,6.34
2023-01-04T11:11:37.196Z,6.41
2023-01-04T11:14:07.594Z,6.40
2023-01-04T11:16:37.736Z,6.40
2023-01-04T11:19:11.774Z,6.58
2023-01-04T11:21:48.058Z,6.62
2023-01-04T11:24:32.249Z,6.41
2023-01-04T11:27:10.336Z,6.43
2023-01-04T11:29:44.931Z,6.49
2023-01-04T11:32:21.252Z,6.58
2023-01-04T11:34:57.720Z,6.79
2023-01-04T11:37:31.018Z,6.75
2023-01-04T11:40:28.349Z,6.90
2023-01-04T11:43:18.312Z,6.87
2023-01-04T11:46:01.079Z,6.97
2023-01-04T11:48:42.883Z,6.98
2023-01-04T11:51:36.759Z,7.06
2023-01-04T11:54:10.961Z,7.12
2023-01-04T11:56:41.107Z,7.26
2023-01-04T11:59:25.216Z,7.33
2023-01-04T12:02:28.899Z,7.46
2023-01-04T12:05:04.814Z,7.56
2023-01-04T12:07:38.584Z,7.72
2023-01-04T12:10:24.934Z,7.82
2023-01-04T12:12:55.552Z,7.95
2023-01-04T12:15:34.104Z,8.09
2023-01-04T12:18:09.733Z,8.14
2023-01-04T12:20:39.996Z,8.23
2023-01-04T12:23:15.116Z,8.25
2023-01-04T12:25:50.131Z,8.28
2023-01-04T12:28:37.679Z,8.39
2023-01-04T12:31:34.074Z,8.41
2023-01-04T12:34:34.508Z,8.39
2023-01-04T12:37:06.304Z,8.38
2023-01-04T12:39:47.715Z,8.42
2023-01-04T12:42:27.177Z,8.44
2023-01-04T12:45:06.001Z,8.41
2023-01-04T12:47:58.866Z,8.43
2023-01-04T12:50:32.280Z,8.35
2023-01-04T12:53:28.784Z,8.30
2023-01-04T12:56:00.478Z,8.31
2023-01-04T12:59:24.733Z,8.35
2023-01-04T13:02:21.096Z,8.36
2023-01-04T13:05:09.345Z,8.39
2023-01-04T13:07:46.752Z,8.44
2023-01-04T13:10:29.976Z,8.42
2023-01-04T13:13:40.064Z,8.37
2023-01-04T13:16:22.626Z,8.43
2023-01-04T13:18:55.361Z,8.41
2023-01-04T13:21:30.967Z,8.40
2023-01-04T13:24:04.659Z,8.37
2023-01-04T13:26:43.293Z,8.43
2023-01-04T13:29:22.486Z,8.47
2023-01-04T13:31:58.637Z,8.44
2023-01-04T13:34:34.794Z,8.33
2023-01-04T13:37:34.345Z,8.36
2023-01-04T13:40:25.459Z,8.34
2023-01-04T13:43:16.293Z,8.35
2023-01-04T13:46:17.382Z,8.32
2023-01-04T13:48:50.973Z,8.29
2023-01-04T13:51:35.881Z,8.38
2023-01-04T13:54:08.885Z,8.35
2023-01-04T13:56:39.088Z,8.33
2023-01-04T13:59:12.153Z,8.33
2023-01-04T14:01:48.343Z,8.21
2023-01-04T14:04:25.568Z,8.15
2023-01-04T14:06:58.257Z,8.07
2023-01-04T14:09:31.168Z,8.08
2023-01-04T14:12:07.589Z,8.09
2023-01-04T14:14:43.452Z,8.03
2023-01-04T14:17:44.537Z,8.00
2023-01-04T14:20:37.527Z,7.89
2023-01-04T14:23:07.593Z,7.89
2023-01-04T14:25:49.527Z,7.83
2023-01-04T14:28:49.810Z,7.82
2023-01-04T14:31:35.832Z,7.72
2023-01-04T14:34:17.865Z,7.55
2023-01-04T14:36:49.396Z,7.43
2023-01-04T14:39:28.281Z,7.41
2023-01-04T14:42:00.395Z,7.35
2023-01-04T14:44:36.372Z,7.21
2023-01-04T14:47:09.404Z,7.04
2023-01-04T14:49:42.494Z,6.90
2023-01-04T14:52:15.644Z,6.82
2023-01-04T14:54:45.740Z,6.70
2023-01-04T14:57:15.803Z,6.61
2023-01-04T14:59:46.733Z,6.47
2023-01-04T15:02:17.542Z,6.32
2023-01-04T15:04:50.467Z,6.21
2023-01-04T15:07:36.954Z,6.12
2023-01-04T15:10:09.505Z,6.06
2023-01-04T15:12:39.576Z,5.93
2023-01-04T15:15:11.599Z,5.80
2023-01-04T15:17:41.788Z,5.69
2023-01-04T15:20:15.005Z,5.60
2023-01-04T15:22:45.626Z,5.51
2023-01-04T15:25:16.338Z,5.52
2023-01-04T15:27:46.426Z,5.47
2023-01-04T15:30:17.178Z,5.48
2023-01-04T15:32:47.475Z,5.40
2023-01-04T15:35:20.538Z,5.34
2023-01-04T15:37:50.873Z,5.41
2023-01-04T15:40:24.507Z,5.35
2023-01-04T15:43:00.965Z,5.27
2023-01-04T15:45:32.180Z,5.20
2023-01-04T15:48:04.097Z,5.10
2023-01-04T15:50:38.592Z,5.18
2023-01-04T15:53:09.349Z,5.14
2023-01-04T15:55:40.859Z,5.13
2023-01-04T15:58:10.913Z,5.02
2023-01-04T16:00:42.508Z,5.05
2023-01-04T16:03:12.555Z,5.01
2023-01-04T16:05:45.264Z,4.90
2023-01-04T16:08:15.259Z,4.86
2023-01-04T16:10:45.298Z,4.82
2023-01-04T16:13:15.389Z,4.73
2023-01-04T16:15:45.922Z,4.74
2023-01-04T16:18:16.077Z,4.72
2023-01-04T16:20:48.760Z,4.68
2023-01-04T16:23:18.965Z,4.64
2023-01-04T16:25:48.992Z,4.56
2023-01-04T16:28:19.089Z,4.50
2023-01-04T16:30:50.293Z,4.50
2023-01-04T16:33:20.927Z,4.59
2023-01-04T16:36:01.034Z,4.56
2023-01-04T16:38:31.099Z,4.62
2023-01-04T16:41:02.721Z,4.80
2023-01-04T16:43:33.926Z,4.79
2023-01-04T16:46:23.697Z,4.83
2023-01-04T16:48:55.792Z,4.92
2023-01-04T16:51:30.181Z,4.88
2023-01-04T16:54:00.369Z,4.77
2023-01-04T16:56:30.478Z,4.87
2023-01-04T16:59:02.281Z,4.90
2023-01-04T17:01:34.962Z,5.01
2023-01-04T17:04:08.913Z,5.13
2023-01-04T17:06:44.672Z,5.23
2023-01-04T17:09:19.992Z,5.31
2023-01-04T17:15:00.645Z,5.06
2023-01-04T17:17:37.616Z,4.97
2023-01-04T17:20:08.832Z,5.01
2023-01-04T17:22:41.829Z,5.06
2023-01-04T17:25:12.333Z,5.04
2023-01-04T17:27:42.486Z,5.03
2023-01-04T17:30:15.308Z,4.97
2023-01-04T17:32:45.385Z,4.96
2023-01-04T17:35:15.799Z,4.92
2023-01-04T17:37:48.455Z,4.86
2023-01-04T17:40:22.908Z,4.79
2023-01-04T17:42:54.175Z,4.75
2023-01-04T17:45:25.799Z,4.67
2023-01-04T17:47:56.023Z,4.59
2023-01-04T17:50:26.103Z,4.53
2023-01-04T17:53:01.557Z,4.47
2023-01-04T17:55:31.698Z,4.48
2023-01-04T17:58:03.377Z,4.46
2023-01-04T18:03:29.507Z,4.36
2023-01-04T18:06:24.470Z,4.31
2023-01-04T18:08:52.562Z,4.35
2023-01-04T18:11:22.805Z,4.36
2023-01-04T18:13:53.326Z,4.27
2023-01-04T18:16:26.761Z,4.25
2023-01-04T18:18:57.734Z,4.22
2023-01-04T18:21:30.825Z,4.23
2023-01-04T18:29:46.946Z,4.07
2023-01-04T18:32:17.087Z,4.14
2023-01-04T18:34:47.173Z,4.22
2023-01-04T18:37:18.984Z,4.29
2023-01-04T18:39:52.353Z,4.36
2023-01-04T18:42:22.699Z,4.43
2023-01-04T18:44:52.798Z,4.46
2023-01-04T18:47:24.415Z,4.41
2023-01-04T18:49:57.259Z,4.40
2023-01-04T18:52:27.284Z,4.33
2023-01-04T18:55:00.105Z,4.31
2023-01-04T18:57:30.427Z,4.41
2023-01-04T19:00:00.935Z,4.44
2023-01-04T19:02:32.999Z,4.49
2023-01-04T19:05:03.286Z,4.49
2023-01-04T19:07:34.275Z,4.54
2023-01-04T19:10:08.837Z,4.52
2023-01-04T19:12:39.192Z,4.51
2023-01-04T19:15:11.591Z,4.60
2023-01-04T19:17:41.761Z,4.56
2023-01-04T19:20:14.548Z,4.54
2023-01-04T19:22:44.620Z,4.51
2023-01-04T19:25:19.870Z,4.58
2023-01-04T19:27:57.130Z,4.65
2023-01-04T19:30:27.080Z,4.62
2023-01-04T19:32:57.445Z,4.64
2023-01-04T19:35:28.031Z,4.68
2023-01-04T19:37:58.248Z,4.77
2023-01-04T19:40:31.263Z,4.82
2023-01-04T19:43:01.777Z,4.88
2023-01-04T19:45:32.606Z,4.93
2023-01-04T19:48:02.792Z,4.99
2023-01-04T19:50:32.936Z,5.00
2023-01-04T19:53:04.027Z,5.01
2023-01-04T19:55:37.229Z,5.04
2023-01-04T19:58:07.560Z,5.01
2023-01-04T20:00:38.264Z,5.08
2023-01-04T20:03:08.610Z,5.09
2023-01-04T20:05:39.188Z,5.07
2023-01-04T20:08:09.509Z,5.09
2023-01-04T20:10:42.324Z,5.10
2023-01-04T20:13:12.339Z,5.14
2023-01-04T20:15:43.099Z,5.24
2023-01-04T20:18:14.356Z,5.29
2023-01-04T20:20:44.983Z,5.37
2023-01-04T20:23:16.313Z,5.45
2023-01-04T20:25:51.561Z,5.43
2023-01-04T20:28:22.696Z,5.46
2023-01-04T20:31:02.979Z,5.48
2023-01-04T20:33:33.636Z,5.36
2023-01-04T20:36:09.588Z,5.37
2023-01-04T20:38:40.865Z,5.40
2023-01-04T20:41:16.460Z,5.48
2023-01-04T20:43:44.933Z,5.53
2023-01-04T20:46:16.423Z,5.62
2023-01-04T20:48:46.677Z,5.62
2023-01-04T20:51:18.881Z,5.69
2023-01-04T20:53:49.224Z,5.63
2023-01-04T20:56:24.047Z,5.68
2023-01-04T20:58:55.269Z,5.72
2023-01-04T21:01:25.946Z,5.82
2023-01-04T21:03:56.475Z,5.94
2023-01-04T21:06:26.597Z,6.01
2023-01-04T21:08:58.058Z,6.07
2023-01-04T21:11:30.859Z,6.12
2023-01-04T21:14:01.926Z,6.16
2023-01-04T21:16:32.013Z,6.18
2023-01-04T21:19:02.149Z,6.18
2023-01-04T21:21:32.176Z,6.14
2023-01-04T21:24:02.424Z,6.14
2023-01-04T21:26:35.237Z,6.12
2023-01-04T21:29:05.310Z,6.15
2023-01-04T21:31:35.999Z,6.06
2023-01-04T21:34:12.444Z,6.05
2023-01-04T21:36:44.610Z,6.00
2023-01-04T21:39:14.853Z,6.01
2023-01-04T21:41:48.277Z,6.01
2023-01-04T21:44:18.654Z,6.00
2023-01-04T21:46:49.028Z,5.98
2023-01-04T21:49:21.163Z,6.04
2023-01-04T21:51:51.432Z,6.11
2023-01-04T21:54:21.452Z,6.17
2023-01-04T21:56:54.510Z,6.22
2023-01-04T21:59:24.802Z,6.18
2023-01-04T22:01:54.952Z,6.23
2023-01-04T22:04:25.128Z,6.21
2023-01-04T22:06:55.463Z,6.20
2023-01-04T22:09:25.960Z,6.17
2023-01-04T22:11:58.716Z,6.20
2023-01-04T22:14:29.015Z,6.18
2023-01-04T22:16:59.104Z,6.17
2023-01-04T22:19:29.953Z,6.25
2023-01-04T22:22:00.307Z,6.23
2023-01-04T22:24:37.266Z,6.20
2023-01-04T22:27:10.595Z,6.22
2023-01-04T22:29:40.754Z,6.25
2023-01-04T22:32:10.781Z,6.18
2023-01-04T22:34:48.490Z,6.14
2023-01-04T22:37:36.071Z,6.18
2023-01-04T22:40:16.707Z,6.16
2023-01-04T22:43:07.084Z,6.17
2023-01-04T22:45:44.470Z,6.16
2023-01-04T22:48:20.474Z,6.13
2023-01-04T22:50:55.123Z,6.15
2023-01-04T22:53:29.671Z,6.10
2023-01-04T22:56:20.404Z,6.09
2023-01-04T22:59:08.079Z,6.11
2023-01-04T23:01:47.640Z,6.04
2023-01-04T23:04:24.237Z,6.05
2023-01-04T23:07:04.833Z,6.09
2023-01-04T23:09:35.119Z,6.00
2023-01-04T23:12:18.590Z,5.99
2023-01-04T23:14:54.240Z,5.98
2023-01-04T23:17:24.302Z,5.88
2023-01-04T23:19:54.725Z,5.86
2023-01-04T23:22:25.745Z,5.79
2023-01-04T23:24:56.040Z,5.78
2023-01-04T23:27:27.676Z,5.71
2023-01-04T23:30:00.494Z,5.62
2023-01-04T23:32:30.599Z,5.57
2023-01-04T23:35:00.750Z,5.53
2023-01-04T23:37:31.115Z,5.51
2023-01-04T23:40:01.241Z,5.45
2023-01-04T23:42:31.663Z,5.40
2023-01-04T23:45:04.606Z,5.38
2023-01-04T23:47:34.669Z,5.35
2023-01-04T23:50:07.001Z,5.31
2023-01-04T23:52:37.272Z,5.28
2023-01-04T23:55:08.126Z,5.22
2023-01-04T23:57:39.019Z,5.28
